sensor_id;sensor_type;location;lat;lon;timestamp;pressure;altitude;pressure_sealevel;temperature;humidity
64078;BME280;51039;49.696;10.808;2023-08-20T00:01:42;98678.53;;;24.16;100.00
64078;BME280;51039;49.696;10.808;2023-08-20T00:04:07;98665.28;;;24.14;100.00
64078;BME280;51039;49.696;10.808;2023-08-20T00:06:33;98673.41;;;24.14;100.00
64078;BME280;51039;49.696;10.808;2023-08-20T00:08:59;98679.38;;;24.11;100.00
64078;BME280;51039;49.696;10.808;2023-08-20T00:11:25;98680.25;;;24.06;100.00
64078;BME280;51039;49.696;10.808;2023-08-20T00:13:50;98676.72;;;24.06;100.00
64078;BME280;51039;49.696;10.808;2023-08-20T00:16:15;98669.13;;;24.08;100.00
64078;BME280;51039;49.696;10.808;2023-08-20T00:18:41;98680.78;;;24.03;100.00
64078;BME280;51039;49.696;10.808;2023-08-20T00:21:06;98686.53;;;23.97;100.00
64078;BME280;51039;49.696;10.808;2023-08-20T00:23:33;98678.78;;;23.85;100.00
64078;BME280;51039;49.696;10.808;2023-08-20T00:25:59;98687.19;;;23.83;100.00
64078;BME280;51039;49.696;10.808;2023-08-20T00:28:25;98683.38;;;23.84;100.00
64078;BME280;51039;49.696;10.808;2023-08-20T00:30:50;98682.06;;;23.82;100.00
64078;BME280;51039;49.696;10.808;2023-08-20T00:33:16;98691.28;;;23.81;100.00
64078;BME280;51039;49.696;10.808;2023-08-20T00:35:42;98687.47;;;23.77;100.00
64078;BME280;51039;49.696;10.808;2023-08-20T00:38:07;98691.53;;;23.74;100.00
64078;BME280;51039;49.696;10.808;2023-08-20T00:40:32;98695.91;;;23.70;100.00
64078;BME280;51039;49.696;10.808;2023-08-20T00:42:58;98691.03;;;23.67;100.00
64078;BME280;51039;49.696;10.808;2023-08-20T00:45:23;98684.56;;;23.63;100.00
64078;BME280;51039;49.696;10.808;2023-08-20T00:47:49;98692.16;;;23.66;100.00
64078;BME280;51039;49.696;10.808;2023-08-20T00:50:15;98694.31;;;23.64;100.00
64078;BME280;51039;49.696;10.808;2023-08-20T00:52:41;98687.28;;;23.63;100.00
64078;BME280;51039;49.696;10.808;2023-08-20T00:55:07;98688.94;;;23.59;100.00
64078;BME280;51039;49.696;10.808;2023-08-20T00:57:34;98684.56;;;23.63;100.00
64078;BME280;51039;49.696;10.808;2023-08-20T01:00:03;98691.63;;;23.64;100.00
64078;BME280;51039;49.696;10.808;2023-08-20T01:02:32;98694.88;;;23.61;100.00
64078;BME280;51039;49.696;10.808;2023-08-20T01:05:02;98697.03;;;23.59;100.00
64078;BME280;51039;49.696;10.808;2023-08-20T01:07:39;98697.91;;;23.54;100.00
64078;BME280;51039;49.696;10.808;2023-08-20T01:10:33;98694.38;;;23.53;100.00
64078;BME280;51039;49.696;10.808;2023-08-20T01:13:04;98698.69;;;23.55;100.00
64078;BME280;51039;49.696;10.808;2023-08-20T01:15:31;98695.47;;;23.52;100.00
64078;BME280;51039;49.696;10.808;2023-08-20T01:17:56;98697.91;;;23.49;100.00
64078;BME280;51039;49.696;10.808;2023-08-20T01:20:22;98696.59;;;23.46;100.00
64078;BME280;51039;49.696;10.808;2023-08-20T01:22:56;98700.38;;;23.45;100.00
64078;BME280;51039;49.696;10.808;2023-08-20T01:28:32;98696.09;;;23.39;100.00
64078;BME280;51039;49.696;10.808;2023-08-20T01:30:59;98707.69;;;23.40;100.00
64078;BME280;51039;49.696;10.808;2023-08-20T01:33:28;98705.25;;;23.38;100.00
64078;BME280;51039;49.696;10.808;2023-08-20T01:35:54;98702.03;;;23.36;100.00
64078;BME280;51039;49.696;10.808;2023-08-20T01:38:20;98702.03;;;23.36;100.00
64078;BME280;51039;49.696;10.808;2023-08-20T01:40:46;98710.44;;;23.35;100.00
64078;BME280;51039;49.696;10.808;2023-08-20T01:43:12;98703.16;;;23.30;100.00
64078;BME280;51039;49.696;10.808;2023-08-20T01:45:38;98706.69;;;23.25;100.00
64078;BME280;51039;49.696;10.808;2023-08-20T01:48:03;98717.78;;;23.19;100.00
64078;BME280;51039;49.696;10.808;2023-08-20T01:50:29;98716.72;;;23.20;100.00
64078;BME280;51039;49.696;10.808;2023-08-20T01:52:54;98713.44;;;23.23;100.00
64078;BME280;51039;49.696;10.808;2023-08-20T01:55:19;98706.44;;;23.27;100.00
64078;BME280;51039;49.696;10.808;2023-08-20T01:57:45;98722.34;;;23.28;100.00
64078;BME280;51039;49.696;10.808;2023-08-20T02:00:10;98717.75;;;23.29;100.00
64078;BME280;51039;49.696;10.808;2023-08-20T02:02:36;98722.34;;;23.28;100.00
64078;BME280;51039;49.696;10.808;2023-08-20T02:05:01;98721.28;;;23.29;100.00
64078;BME280;51039;49.696;10.808;2023-08-20T02:07:27;98723.16;;;23.29;100.00
64078;BME280;51039;49.696;10.808;2023-08-20T02:09:53;98724.78;;;23.25;100.00
64078;BME280;51039;49.696;10.808;2023-08-20T02:12:18;98720.75;;;23.22;100.00
64078;BME280;51039;49.696;10.808;2023-08-20T02:14:44;98724.84;;;23.09;100.00
64078;BME280;51039;49.696;10.808;2023-08-20T02:17:10;98722.69;;;23.11;100.00
64078;BME280;51039;49.696;10.808;2023-08-20T02:19:37;98726.22;;;23.07;100.00
64078;BME280;51039;49.696;10.808;2023-08-20T02:22:02;98720.00;;;23.06;100.00
64078;BME280;51039;49.696;10.808;2023-08-20T02:24:27;98719.75;;;23.03;100.00
64078;BME280;51039;49.696;10.808;2023-08-20T02:26:53;98721.34;;;22.99;100.00
64078;BME280;51039;49.696;10.808;2023-08-20T02:29:18;98720.03;;;22.91;100.00
64078;BME280;51039;49.696;10.808;2023-08-20T02:31:43;98716.25;;;22.87;100.00
64078;BME280;51039;49.696;10.808;2023-08-20T02:34:09;98717.34;;;22.86;100.00
64078;BME280;51039;49.696;10.808;2023-08-20T02:36:34;98720.59;;;22.78;100.00
64078;BME280;51039;49.696;10.808;2023-08-20T02:38:59;98713.56;;;22.77;100.00
64078;BME280;51039;49.696;10.808;2023-08-20T02:41:24;98712.53;;;22.62;100.00
64078;BME280;51039;49.696;10.808;2023-08-20T02:43:50;98708.75;;;22.68;100.00
64078;BME280;51039;49.696;10.808;2023-08-20T02:46:15;98713.59;;;22.66;100.00
64078;BME280;51039;49.696;10.808;2023-08-20T02:48:40;98712.00;;;22.60;100.00
64078;BME280;51039;49.696;10.808;2023-08-20T02:51:06;98717.94;;;22.62;100.00
64078;BME280;51039;49.696;10.808;2023-08-20T02:53:31;98714.69;;;22.60;100.00
64078;BME280;51039;49.696;10.808;2023-08-20T02:55:57;98712.00;;;22.55;100.00
64078;BME280;51039;49.696;10.808;2023-08-20T02:58:22;98711.47;;;22.53;100.00
64078;BME280;51039;49.696;10.808;2023-08-20T03:00:48;98706.91;;;22.48;100.00
64078;BME280;51039;49.696;10.808;2023-08-20T03:03:13;98706.06;;;22.48;100.00
64078;BME280;51039;49.696;10.808;2023-08-20T03:05:38;98713.91;;;22.44;100.00
64078;BME280;51039;49.696;10.808;2023-08-20T03:08:04;98712.03;;;22.45;100.00
64078;BME280;51039;49.696;10.808;2023-08-20T03:10:30;98708.53;;;22.44;100.00
64078;BME280;51039;49.696;10.808;2023-08-20T03:12:59;98711.50;;;22.43;100.00
64078;BME280;51039;49.696;10.808;2023-08-20T03:15:25;98708.25;;;22.41;100.00
64078;BME280;51039;49.696;10.808;2023-08-20T03:17:51;98705.81;;;22.39;100.00
64078;BME280;51039;49.696;10.808;2023-08-20T03:20:16;98705.00;;;22.33;100.00
64078;BME280;51039;49.696;10.808;2023-08-20T03:22:41;98708.53;;;22.29;100.00
64078;BME280;51039;49.696;10.808;2023-08-20T03:25:07;98712.00;;;22.24;100.00
64078;BME280;51039;49.696;10.808;2023-08-20T03:27:32;98712.28;;;22.18;100.00
64078;BME280;51039;49.696;10.808;2023-08-20T03:29:58;98717.41;;;22.14;100.00
64078;BME280;51039;49.696;10.808;2023-08-20T03:32:23;98711.47;;;22.12;100.00
64078;BME280;51039;49.696;10.808;2023-08-20T03:34:49;98718.75;;;22.06;100.00
64078;BME280;51039;49.696;10.808;2023-08-20T03:37:14;98711.44;;;22.02;100.00
64078;BME280;51039;49.696;10.808;2023-08-20T03:39:40;98713.09;;;21.92;100.00
64078;BME280;51039;49.696;10.808;2023-08-20T03:42:05;98715.50;;;21.94;100.00
64078;BME280;51039;49.696;10.808;2023-08-20T03:44:30;98726.28;;;21.94;100.00
64078;BME280;51039;49.696;10.808;2023-08-20T03:46:56;98722.50;;;21.90;100.00
64078;BME280;51039;49.696;10.808;2023-08-20T03:49:21;98726.03;;;21.90;100.00
64078;BME280;51039;49.696;10.808;2023-08-20T03:51:47;98723.59;;;21.89;100.00
64078;BME280;51039;49.696;10.808;2023-08-20T03:54:12;98725.50;;;21.88;100.00
64078;BME280;51039;49.696;10.808;2023-08-20T03:56:37;98725.75;;;21.92;100.00
64078;BME280;51039;49.696;10.808;2023-08-20T03:59:03;98729.28;;;21.92;100.00
64078;BME280;51039;49.696;10.808;2023-08-20T04:01:29;98734.38;;;21.89;100.00
64078;BME280;51039;49.696;10.808;2023-08-20T04:03:54;98730.88;;;21.83;100.00
64078;BME280;51039;49.696;10.808;2023-08-20T04:06:20;98728.19;;;21.88;100.00
64078;BME280;51039;49.696;10.808;2023-08-20T04:08:45;98731.44;;;21.90;100.00
64078;BME280;51039;49.696;10.808;2023-08-20T04:11:10;98739.22;;;21.92;100.00
64078;BME280;51039;49.696;10.808;2023-08-20T04:13:35;98737.06;;;21.94;100.00
64078;BME280;51039;49.696;10.808;2023-08-20T04:16:01;98743.28;;;21.94;100.00
64078;BME280;51039;49.696;10.808;2023-08-20T04:18:26;98738.44;;;21.96;100.00
64078;BME280;51039;49.696;10.808;2023-08-20T04:20:51;98739.50;;;21.95;100.00
64078;BME280;51039;49.696;10.808;2023-08-20T04:23:17;98745.97;;;22.00;100.00
64078;BME280;51039;49.696;10.808;2023-08-20T04:25:43;98745.97;;;22.00;100.00
64078;BME280;51039;49.696;10.808;2023-08-20T04:28:10;98744.38;;;21.99;100.00
64078;BME280;51039;49.696;10.808;2023-08-20T04:30:35;98743.28;;;22.00;100.00
64078;BME280;51039;49.696;10.808;2023-08-20T04:33:01;98739.75;;;21.94;100.00
64078;BME280;51039;49.696;10.808;2023-08-20T04:35:27;98736.81;;;21.95;100.00
64078;BME280;51039;49.696;10.808;2023-08-20T04:37:52;98736.53;;;21.97;100.00
64078;BME280;51039;49.696;10.808;2023-08-20T04:40:17;98738.97;;;21.99;100.00
64078;BME280;51039;49.696;10.808;2023-08-20T04:42:43;98744.66;;;22.02;100.00
64078;BME280;51039;49.696;10.808;2023-08-20T04:45:08;98744.38;;;22.14;100.00
64078;BME280;51039;49.696;10.808;2023-08-20T04:47:34;98750.88;;;22.28;100.00
64078;BME280;51039;49.696;10.808;2023-08-20T04:50:00;98759.00;;;22.39;100.00
64078;BME280;51039;49.696;10.808;2023-08-20T04:52:26;98752.50;;;22.60;100.00
64078;BME280;51039;49.696;10.808;2023-08-20T04:54:51;98750.84;;;22.74;100.00
64078;BME280;51039;49.696;10.808;2023-08-20T04:57:16;98758.94;;;22.80;100.00
64078;BME280;51039;49.696;10.808;2023-08-20T04:59:41;98753.28;;;22.71;100.00
64078;BME280;51039;49.696;10.808;2023-08-20T05:02:10;98755.97;;;22.71;100.00
64078;BME280;51039;49.696;10.808;2023-08-20T05:04:38;98755.97;;;22.76;100.00
64078;BME280;51039;49.696;10.808;2023-08-20T05:07:04;98764.88;;;22.82;100.00
64078;BME280;51039;49.696;10.808;2023-08-20T05:09:29;98758.66;;;22.97;100.00
64078;BME280;51039;49.696;10.808;2023-08-20T05:11:55;98766.72;;;23.02;100.00
64078;BME280;51039;49.696;10.808;2023-08-20T05:14:20;98763.25;;;23.06;100.00
64078;BME280;51039;49.696;10.808;2023-08-20T05:16:45;98759.97;;;23.15;100.00
64078;BME280;51039;49.696;10.808;2023-08-20T05:19:10;98760.00;;;23.04;100.00
64078;BME280;51039;49.696;10.808;2023-08-20T05:21:36;98762.66;;;23.09;100.00
64078;BME280;51039;49.696;10.808;2023-08-20T05:24:01;98766.91;;;23.36;100.00
64078;BME280;51039;49.696;10.808;2023-08-20T05:26:26;98767.44;;;23.43;100.00
64078;BME280;51039;49.696;10.808;2023-08-20T05:28:52;98762.34;;;23.37;100.00
64078;BME280;51039;49.696;10.808;2023-08-20T05:31:17;98763.59;;;23.49;100.00
64078;BME280;51039;49.696;10.808;2023-08-20T05:33:42;98767.44;;;23.98;100.00
64078;BME280;51039;49.696;10.808;2023-08-20T05:36:07;98764.44;;;24.34;98.63
64078;BME280;51039;49.696;10.808;2023-08-20T05:38:33;98762.81;;;24.97;94.12
64078;BME280;51039;49.696;10.808;2023-08-20T05:40:58;98771.25;;;25.19;92.59
64078;BME280;51039;49.696;10.808;2023-08-20T05:43:23;98774.06;;;25.57;90.35
64078;BME280;51039;49.696;10.808;2023-08-20T05:45:48;98769.97;;;25.60;89.71
64078;BME280;51039;49.696;10.808;2023-08-20T05:48:14;98764.97;;;25.91;88.03
64078;BME280;51039;49.696;10.808;2023-08-20T05:50:39;98756.56;;;25.88;87.41
64078;BME280;51039;49.696;10.808;2023-08-20T05:53:04;98758.97;;;25.89;87.29
64078;BME280;51039;49.696;10.808;2023-08-20T05:55:30;98759.34;;;25.82;88.38
64078;BME280;51039;49.696;10.808;2023-08-20T05:57:55;98761.72;;;26.08;86.83
64078;BME280;51039;49.696;10.808;2023-08-20T06:00:20;98763.19;;;26.52;83.81
64078;BME280;51039;49.696;10.808;2023-08-20T06:02:46;98761.72;;;27.71;76.78
64078;BME280;51039;49.696;10.808;2023-08-20T06:05:11;98771.09;;;29.14;70.77
64078;BME280;51039;49.696;10.808;2023-08-20T06:07:36;98767.81;;;29.69;66.19
64078;BME280;51039;49.696;10.808;2023-08-20T06:10:02;98774.13;;;30.48;63.90
64078;BME280;51039;49.696;10.808;2023-08-20T06:12:27;98774.56;;;31.24;60.88
64078;BME280;51039;49.696;10.808;2023-08-20T06:14:53;98777.50;;;32.33;56.65
64078;BME280;51039;49.696;10.808;2023-08-20T06:17:18;98780.53;;;32.85;55.27
64078;BME280;51039;49.696;10.808;2023-08-20T06:19:44;98777.28;;;32.59;54.82
64078;BME280;51039;49.696;10.808;2023-08-20T06:22:09;98773.66;;;32.67;54.26
64078;BME280;51039;49.696;10.808;2023-08-20T06:24:35;98788.00;;;33.22;52.92
64078;BME280;51039;49.696;10.808;2023-08-20T06:27:00;98786.16;;;33.51;52.16
64078;BME280;51039;49.696;10.808;2023-08-20T06:29:26;98784.00;;;34.37;49.26
64078;BME280;51039;49.696;10.808;2023-08-20T06:31:51;98787.16;;;35.28;46.72
64078;BME280;51039;49.696;10.808;2023-08-20T06:34:16;98783.03;;;33.89;50.09
64078;BME280;51039;49.696;10.808;2023-08-20T06:36:42;98784.16;;;35.01;46.82
64078;BME280;51039;49.696;10.808;2023-08-20T06:39:08;98782.63;;;34.88;46.89
64078;BME280;51039;49.696;10.808;2023-08-20T06:41:34;98787.63;;;34.54;47.28
64078;BME280;51039;49.696;10.808;2023-08-20T06:44:00;98791.06;;;34.51;48.04
64078;BME280;51039;49.696;10.808;2023-08-20T06:46:25;98793.09;;;34.38;48.15
64078;BME280;51039;49.696;10.808;2023-08-20T06:48:50;98796.94;;;33.31;51.18
64078;BME280;51039;49.696;10.808;2023-08-20T06:51:18;98788.41;;;31.19;58.12
64078;BME280;51039;49.696;10.808;2023-08-20T06:53:44;98791.25;;;32.45;55.04
64078;BME280;51039;49.696;10.808;2023-08-20T06:56:10;98788.75;;;31.77;56.00
64078;BME280;51039;49.696;10.808;2023-08-20T06:58:39;98799.78;;;33.72;50.68
64078;BME280;51039;49.696;10.808;2023-08-20T07:01:05;98804.72;;;33.54;50.27
64078;BME280;51039;49.696;10.808;2023-08-20T07:03:34;98806.22;;;31.34;56.72
64078;BME280;51039;49.696;10.808;2023-08-20T07:06:03;98809.53;;;30.36;60.43
64078;BME280;51039;49.696;10.808;2023-08-20T07:08:28;98809.19;;;30.11;62.09
64078;BME280;51039;49.696;10.808;2023-08-20T07:10:54;98818.28;;;30.85;61.08
64078;BME280;51039;49.696;10.808;2023-08-20T07:13:19;98816.25;;;33.10;52.79
64078;BME280;51039;49.696;10.808;2023-08-20T07:15:44;98809.03;;;32.60;53.43
64078;BME280;51039;49.696;10.808;2023-08-20T07:18:09;98812.78;;;34.40;48.95
64078;BME280;51039;49.696;10.808;2023-08-20T07:20:38;98823.03;;;34.27;48.12
64078;BME280;51039;49.696;10.808;2023-08-20T07:23:03;98809.88;;;34.08;50.25
64078;BME280;51039;49.696;10.808;2023-08-20T07:25:29;98810.88;;;35.84;46.47
64078;BME280;51039;49.696;10.808;2023-08-20T07:27:54;98805.22;;;37.70;41.75
64078;BME280;51039;49.696;10.808;2023-08-20T07:30:24;98802.09;;;37.22;42.91
64078;BME280;51039;49.696;10.808;2023-08-20T07:32:49;98802.81;;;37.15;42.29
64078;BME280;51039;49.696;10.808;2023-08-20T07:35:14;98809.75;;;37.32;40.71
64078;BME280;51039;49.696;10.808;2023-08-20T07:37:40;98815.25;;;37.82;40.58
64078;BME280;51039;49.696;10.808;2023-08-20T07:40:05;98815.81;;;37.41;40.00
64078;BME280;51039;49.696;10.808;2023-08-20T07:42:31;98822.19;;;37.19;40.75
64078;BME280;51039;49.696;10.808;2023-08-20T07:44:56;98817.03;;;37.17;41.67
64078;BME280;51039;49.696;10.808;2023-08-20T07:47:22;98826.59;;;38.67;38.49
64078;BME280;51039;49.696;10.808;2023-08-20T07:49:47;98815.06;;;38.62;37.85
64078;BME280;51039;49.696;10.808;2023-08-20T07:52:12;98824.94;;;39.00;38.01
64078;BME280;51039;49.696;10.808;2023-08-20T07:54:38;98812.56;;;39.35;37.84
64078;BME280;51039;49.696;10.808;2023-08-20T07:57:03;98820.00;;;39.24;38.75
64078;BME280;51039;49.696;10.808;2023-08-20T07:59:28;98818.72;;;39.66;36.52
64078;BME280;51039;49.696;10.808;2023-08-20T08:01:53;98824.91;;;40.15;36.19
64078;BME280;51039;49.696;10.808;2023-08-20T08:04:19;98821.91;;;40.67;34.40
64078;BME280;51039;49.696;10.808;2023-08-20T08:06:44;98831.03;;;37.81;39.55
64078;BME280;51039;49.696;10.808;2023-08-20T08:09:19;98835.81;;;38.79;38.72
64078;BME280;51039;49.696;10.808;2023-08-20T08:11:46;98842.84;;;38.39;38.90
64078;BME280;51039;49.696;10.808;2023-08-20T08:14:12;98836.25;;;39.84;36.67
64078;BME280;51039;49.696;10.808;2023-08-20T08:16:37;98835.41;;;40.57;35.72
64078;BME280;51039;49.696;10.808;2023-08-20T08:19:03;98835.66;;;40.23;36.22
64078;BME280;51039;49.696;10.808;2023-08-20T08:21:28;98849.13;;;39.07;38.32
64078;BME280;51039;49.696;10.808;2023-08-20T08:23:53;98845.00;;;39.87;37.60
64078;BME280;51039;49.696;10.808;2023-08-20T08:26:18;98850.94;;;39.33;38.08
64078;BME280;51039;49.696;10.808;2023-08-20T08:28:44;98848.25;;;40.03;36.86
64078;BME280;51039;49.696;10.808;2023-08-20T08:31:09;98855.44;;;40.15;37.64
64078;BME280;51039;49.696;10.808;2023-08-20T08:33:34;98854.53;;;38.55;39.20
64078;BME280;51039;49.696;10.808;2023-08-20T08:36:00;98849.56;;;39.61;37.24
64078;BME280;51039;49.696;10.808;2023-08-20T08:38:25;98847.03;;;39.97;36.99
64078;BME280;51039;49.696;10.808;2023-08-20T08:40:53;98852.34;;;39.13;38.43
64078;BME280;51039;49.696;10.808;2023-08-20T08:43:20;98857.16;;;38.44;38.85
64078;BME280;51039;49.696;10.808;2023-08-20T08:45:46;98856.28;;;39.56;37.54
64078;BME280;51039;49.696;10.808;2023-08-20T08:48:14;98852.94;;;39.92;37.00
64078;BME280;51039;49.696;10.808;2023-08-20T08:50:40;98851.25;;;39.76;36.15
64078;BME280;51039;49.696;10.808;2023-08-20T08:53:06;98844.50;;;40.51;36.31
64078;BME280;51039;49.696;10.808;2023-08-20T08:55:32;98854.16;;;41.47;34.05
64078;BME280;51039;49.696;10.808;2023-08-20T08:57:58;98848.56;;;41.75;34.42
64078;BME280;51039;49.696;10.808;2023-08-20T09:00:23;98838.19;;;40.57;35.72
64078;BME280;51039;49.696;10.808;2023-08-20T09:02:49;98853.22;;;40.49;36.36
64078;BME280;51039;49.696;10.808;2023-08-20T09:05:14;98844.13;;;39.75;37.29
64078;BME280;51039;49.696;10.808;2023-08-20T09:07:43;98839.25;;;38.35;40.01
64078;BME280;51039;49.696;10.808;2023-08-20T09:10:11;98842.91;;;37.32;40.72
64078;BME280;51039;49.696;10.808;2023-08-20T09:12:37;98840.59;;;37.11;42.11
64078;BME280;51039;49.696;10.808;2023-08-20T09:15:02;98838.81;;;37.22;41.86
64078;BME280;51039;49.696;10.808;2023-08-20T09:17:28;98843.53;;;36.17;45.02
64078;BME280;51039;49.696;10.808;2023-08-20T09:19:54;98845.31;;;37.33;41.24
64078;BME280;51039;49.696;10.808;2023-08-20T09:22:23;98842.63;;;36.52;42.13
64078;BME280;51039;49.696;10.808;2023-08-20T09:24:52;98848.69;;;38.00;39.76
64078;BME280;51039;49.696;10.808;2023-08-20T09:27:19;98846.31;;;39.44;38.86
64078;BME280;51039;49.696;10.808;2023-08-20T09:29:45;98844.72;;;40.06;36.67
64078;BME280;51039;49.696;10.808;2023-08-20T09:32:16;98841.38;;;40.70;36.29
64078;BME280;51039;49.696;10.808;2023-08-20T09:34:47;98839.38;;;39.76;36.51
64078;BME280;51039;49.696;10.808;2023-08-20T09:37:17;98836.13;;;40.33;35.34
64078;BME280;51039;49.696;10.808;2023-08-20T09:39:43;98842.03;;;39.58;35.58
64078;BME280;51039;49.696;10.808;2023-08-20T09:42:09;98843.59;;;39.52;35.94
64078;BME280;51039;49.696;10.808;2023-08-20T09:44:36;98840.78;;;38.32;38.54
64078;BME280;51039;49.696;10.808;2023-08-20T09:47:05;98845.66;;;38.08;37.95
64078;BME280;51039;49.696;10.808;2023-08-20T09:49:32;98851.13;;;38.69;37.39
64078;BME280;51039;49.696;10.808;2023-08-20T09:52:03;98846.44;;;38.09;37.34
64078;BME280;51039;49.696;10.808;2023-08-20T09:54:47;98850.53;;;37.16;38.96
64078;BME280;51039;49.696;10.808;2023-08-20T09:57:27;98838.72;;;36.72;40.57
64078;BME280;51039;49.696;10.808;2023-08-20T09:59:58;98842.44;;;38.37;38.33
64078;BME280;51039;49.696;10.808;2023-08-20T10:02:24;98844.50;;;38.09;37.84
64078;BME280;51039;49.696;10.808;2023-08-20T10:04:50;98849.22;;;38.77;37.18
64078;BME280;51039;49.696;10.808;2023-08-20T10:07:17;98843.28;;;38.78;37.18
64078;BME280;51039;49.696;10.808;2023-08-20T10:09:43;98846.06;;;37.80;38.99
64078;BME280;51039;49.696;10.808;2023-08-20T10:12:11;98845.88;;;37.69;38.19
64078;BME280;51039;49.696;10.808;2023-08-20T10:14:40;98841.69;;;37.29;39.49
64078;BME280;51039;49.696;10.808;2023-08-20T10:17:07;98850.81;;;37.10;39.66
64078;BME280;51039;49.696;10.808;2023-08-20T10:19:36;98842.94;;;36.47;41.78
64078;BME280;51039;49.696;10.808;2023-08-20T10:22:03;98841.25;;;38.38;38.29
64078;BME280;51039;49.696;10.808;2023-08-20T10:24:29;98847.22;;;38.74;37.38
64078;BME280;51039;49.696;10.808;2023-08-20T10:27:23;98842.91;;;39.69;35.47
64078;BME280;51039;49.696;10.808;2023-08-20T10:29:52;98840.69;;;38.93;36.57
64078;BME280;51039;49.696;10.808;2023-08-20T10:32:18;98840.16;;;39.24;36.36
64078;BME280;51039;49.696;10.808;2023-08-20T10:34:44;98846.91;;;38.82;36.66
64078;BME280;51039;49.696;10.808;2023-08-20T10:37:15;98848.88;;;38.14;37.54
64078;BME280;51039;49.696;10.808;2023-08-20T10:39:41;98840.41;;;37.23;38.42
64078;BME280;51039;49.696;10.808;2023-08-20T10:47:44;98834.66;;;36.66;39.88
64078;BME280;51039;49.696;10.808;2023-08-20T10:50:10;98827.09;;;37.56;38.68
64078;BME280;51039;49.696;10.808;2023-08-20T10:52:49;98830.63;;;37.29;40.20
64078;BME280;51039;49.696;10.808;2023-08-20T10:55:22;98830.56;;;37.76;39.57
64078;BME280;51039;49.696;10.808;2023-08-20T10:57:54;98824.13;;;37.68;39.69
64078;BME280;51039;49.696;10.808;2023-08-20T11:00:21;98827.47;;;37.54;39.17
64078;BME280;51039;49.696;10.808;2023-08-20T11:02:46;98825.19;;;37.86;38.78
64078;BME280;51039;49.696;10.808;2023-08-20T11:05:19;98828.19;;;38.04;36.46
64078;BME280;51039;49.696;10.808;2023-08-20T11:07:46;98828.34;;;38.15;37.51
64078;BME280;51039;49.696;10.808;2023-08-20T11:10:13;98828.25;;;38.08;37.64
64078;BME280;51039;49.696;10.808;2023-08-20T11:12:39;98822.94;;;37.96;36.76
64078;BME280;51039;49.696;10.808;2023-08-20T11:15:05;98821.63;;;38.16;38.31
64078;BME280;51039;49.696;10.808;2023-08-20T11:17:32;98818.50;;;37.61;37.39
64078;BME280;51039;49.696;10.808;2023-08-20T11:19:57;98810.69;;;36.70;38.42
64078;BME280;51039;49.696;10.808;2023-08-20T11:22:23;98814.72;;;35.79;40.59
64078;BME280;51039;49.696;10.808;2023-08-20T11:24:48;98810.84;;;35.00;42.29
64078;BME280;51039;49.696;10.808;2023-08-20T11:27:13;98813.34;;;35.53;42.11
64078;BME280;51039;49.696;10.808;2023-08-20T11:29:41;98813.16;;;35.46;41.52
64078;BME280;51039;49.696;10.808;2023-08-20T11:32:08;98812.09;;;34.87;42.84
64078;BME280;51039;49.696;10.808;2023-08-20T11:34:34;98806.25;;;34.60;43.56
64078;BME280;51039;49.696;10.808;2023-08-20T11:37:00;98800.84;;;35.24;43.65
64078;BME280;51039;49.696;10.808;2023-08-20T11:39:26;98813.25;;;35.02;42.93
64078;BME280;51039;49.696;10.808;2023-08-20T11:41:51;98815.56;;;34.84;43.22
64078;BME280;51039;49.696;10.808;2023-08-20T11:44:20;98814.69;;;34.80;43.53
64078;BME280;51039;49.696;10.808;2023-08-20T11:46:48;98801.81;;;35.32;42.77
64078;BME280;51039;49.696;10.808;2023-08-20T11:49:14;98808.78;;;34.81;43.96
64078;BME280;51039;49.696;10.808;2023-08-20T11:51:44;98802.66;;;33.75;46.25
64078;BME280;51039;49.696;10.808;2023-08-20T11:54:13;98807.22;;;34.80;44.22
64078;BME280;51039;49.696;10.808;2023-08-20T11:56:43;98798.69;;;35.02;43.81
64078;BME280;51039;49.696;10.808;2023-08-20T11:59:13;98799.31;;;34.95;45.68
64078;BME280;51039;49.696;10.808;2023-08-20T12:01:39;98801.53;;;35.05;45.56
64078;BME280;51039;49.696;10.808;2023-08-20T12:04:05;98794.53;;;35.08;43.26
64078;BME280;51039;49.696;10.808;2023-08-20T12:06:32;98797.97;;;35.05;43.96
64078;BME280;51039;49.696;10.808;2023-08-20T12:08:59;98790.25;;;35.10;45.13
64078;BME280;51039;49.696;10.808;2023-08-20T12:11:25;98788.59;;;34.90;43.96
64078;BME280;51039;49.696;10.808;2023-08-20T12:13:54;98791.66;;;35.87;42.13
64078;BME280;51039;49.696;10.808;2023-08-20T12:16:23;98793.69;;;35.90;41.46
64078;BME280;51039;49.696;10.808;2023-08-20T12:18:50;98797.34;;;35.43;42.75
64078;BME280;51039;49.696;10.808;2023-08-20T12:21:16;98790.34;;;35.81;42.16
64078;BME280;51039;49.696;10.808;2023-08-20T12:23:41;98791.38;;;35.57;42.67
64078;BME280;51039;49.696;10.808;2023-08-20T12:26:07;98789.75;;;35.72;43.92
64078;BME280;51039;49.696;10.808;2023-08-20T12:28:35;98789.81;;;36.30;43.18
64078;BME280;51039;49.696;10.808;2023-08-20T12:31:00;98783.88;;;35.73;43.33
64078;BME280;51039;49.696;10.808;2023-08-20T12:33:25;98787.88;;;35.60;42.20
64078;BME280;51039;49.696;10.808;2023-08-20T12:35:54;98783.00;;;35.69;42.92
64078;BME280;51039;49.696;10.808;2023-08-20T12:38:20;98779.84;;;35.51;43.11
64078;BME280;51039;49.696;10.808;2023-08-20T12:40:46;98782.81;;;35.27;42.94
64078;BME280;51039;49.696;10.808;2023-08-20T12:43:11;98777.75;;;35.29;43.08
64078;BME280;51039;49.696;10.808;2023-08-20T12:45:36;98773.66;;;35.74;43.59
64078;BME280;51039;49.696;10.808;2023-08-20T12:48:03;98769.56;;;35.32;42.47
64078;BME280;51039;49.696;10.808;2023-08-20T12:50:29;98759.16;;;35.42;42.43